Time;durP1;ratioP1;P1;durP2;ratioP2;P2;SDS_P1;SDS_P2;PMS_P1;PMS_P2;Temp;Humidity;BMP_temperature;BMP_pressure;BME280_temperature;BME280_humidity;BME280_pressure;Samples;Min_cycle;Max_cycle;Signal;HPM_P1;HPM_P2
2021/12/29 00:00:39;;;;;;;9.17;5.87;;;8.90;99.90;;;;;;4998644;28;20200;-80
2021/12/29 00:03:05;;;;;;;11.17;6.07;;;8.90;99.90;;;;;;4996302;28;20037;-80
2021/12/29 00:05:31;;;;;;;9.87;5.90;;;9.00;99.90;;;;;;5010180;28;20026;-81
2021/12/29 00:07:57;;;;;;;12.10;6.07;;;8.90;99.90;;;;;;5010638;28;20067;-80
2021/12/29 00:10:25;;;;;;;13.67;7.37;;;8.90;99.90;;;;;;4999696;28;20031;-80
2021/12/29 00:12:53;;;;;;;14.00;7.07;;;8.90;99.90;;;;;;4997480;28;20010;-80
2021/12/29 00:15:24;;;;;;;16.93;6.13;;;8.90;99.90;;;;;;4998307;28;20015;-78
2021/12/29 00:17:50;;;;;;;11.17;6.03;;;8.90;99.90;;;;;;4998441;28;20019;-79
2021/12/29 00:20:19;;;;;;;10.23;6.27;;;9.00;99.90;;;;;;4998243;28;20049;-79
2021/12/29 00:22:45;;;;;;;17.60;6.60;;;8.90;99.90;;;;;;4998653;28;20011;-80
2021/12/29 00:25:12;;;;;;;13.47;6.60;;;9.00;99.90;;;;;;4999944;28;20038;-80
2021/12/29 00:27:38;;;;;;;15.27;6.43;;;8.90;99.90;;;;;;4999771;28;20031;-80
2021/12/29 00:30:07;;;;;;;14.23;6.70;;;8.90;99.90;;;;;;4997514;28;20091;-80
2021/12/29 00:32:35;;;;;;;15.20;6.77;;;9.00;99.90;;;;;;5012939;28;20047;-80
2021/12/29 00:35:02;;;;;;;11.07;5.60;;;9.00;99.90;;;;;;4997646;28;20204;-79
2021/12/29 00:37:31;;;;;;;10.73;5.70;;;8.90;99.90;;;;;;5015917;28;20030;-80
2021/12/29 00:39:56;;;;;;;11.50;5.37;;;8.90;99.90;;;;;;4998317;28;20042;-80
2021/12/29 00:42:22;;;;;;;16.23;6.37;;;8.90;99.90;;;;;;4997945;28;20026;-80
2021/12/29 00:44:50;;;;;;;14.20;6.17;;;8.90;99.90;;;;;;4993514;28;20039;-81
2021/12/29 00:47:16;;;;;;;13.47;7.20;;;8.90;99.90;;;;;;4997156;28;20030;-80
2021/12/29 00:49:46;;;;;;;17.77;7.57;;;8.90;99.90;;;;;;4994473;28;20140;-80
2021/12/29 00:52:12;;;;;;;23.00;7.93;;;8.90;99.90;;;;;;4999807;28;20014;-80
2021/12/29 00:54:41;;;;;;;14.90;7.10;;;8.90;99.90;;;;;;4998199;28;20033;-80
2021/12/29 00:57:06;;;;;;;16.50;6.77;;;8.90;99.90;;;;;;4995487;28;20201;-80
2021/12/29 00:59:32;;;;;;;14.20;6.23;;;8.90;99.90;;;;;;5011557;28;20040;-79
2021/12/29 01:01:58;;;;;;;14.43;5.93;;;8.90;99.90;;;;;;4998710;28;20018;-79
2021/12/29 01:04:27;;;;;;;15.10;6.57;;;8.90;99.90;;;;;;4994776;28;20030;-80
2021/12/29 01:06:53;;;;;;;12.13;6.13;;;8.90;99.90;;;;;;4997145;28;20078;-80
2021/12/29 01:09:18;;;;;;;10.37;6.13;;;8.80;99.90;;;;;;5007964;28;20038;-80
2021/12/29 01:11:46;;;;;;;13.00;5.63;;;8.90;99.90;;;;;;4994603;28;20085;-80
2021/12/29 01:14:12;;;;;;;12.20;5.83;;;8.90;99.90;;;;;;5046545;23;20219;-81
2021/12/29 01:16:38;;;;;;;11.33;5.70;;;8.90;99.90;;;;;;5004171;28;20009;-80
2021/12/29 01:19:08;;;;;;;12.67;6.23;;;8.90;99.90;;;;;;4999769;28;20057;-80
2021/12/29 01:21:35;;;;;;;11.57;6.13;;;8.90;99.90;;;;;;5009534;28;20023;-80
2021/12/29 01:24:03;;;;;;;12.67;6.03;;;8.90;99.90;;;;;;5000349;28;20014;-80
2021/12/29 01:26:29;;;;;;;10.87;5.57;;;8.90;99.90;;;;;;5004632;28;20034;-79
2021/12/29 01:28:54;;;;;;;13.17;6.63;;;8.90;99.90;;;;;;5002387;28;20044;-80
2021/12/29 01:31:20;;;;;;;18.57;6.03;;;8.90;99.90;;;;;;5000874;28;20022;-80
2021/12/29 01:33:46;;;;;;;9.90;5.27;;;8.90;99.90;;;;;;5000755;28;20037;-80
2021/12/29 01:36:14;;;;;;;9.77;5.17;;;8.90;99.90;;;;;;4994372;28;20010;-80
2021/12/29 01:38:40;;;;;;;11.50;4.80;;;9.00;99.90;;;;;;5004912;28;20113;-80
2021/12/29 01:41:09;;;;;;;11.43;4.73;;;8.90;99.90;;;;;;5004378;28;20015;-80
2021/12/29 01:43:37;;;;;;;9.60;4.67;;;8.90;99.90;;;;;;5014850;28;20037;-81
2021/12/29 01:46:03;;;;;;;8.23;4.67;;;8.90;99.90;;;;;;5000604;28;20030;-80
2021/12/29 01:48:31;;;;;;;10.33;4.90;;;8.90;99.90;;;;;;5001279;28;20034;-80
2021/12/29 01:50:59;;;;;;;8.73;4.67;;;8.90;99.90;;;;;;4996034;28;20029;-80
2021/12/29 01:53:29;;;;;;;10.10;5.13;;;8.90;99.90;;;;;;4999122;28;20026;-80
2021/12/29 01:55:56;;;;;;;8.83;4.97;;;8.90;99.90;;;;;;5003545;28;20014;-81
2021/12/29 01:58:23;;;;;;;8.30;5.20;;;8.90;99.90;;;;;;5015381;28;20095;-81
2021/12/29 02:00:53;;;;;;;10.50;5.50;;;9.00;99.90;;;;;;5000301;28;20030;-80
2021/12/29 02:03:19;;;;;;;6.70;4.70;;;8.90;99.90;;;;;;5017981;28;20015;-80
2021/12/29 02:05:44;;;;;;;11.97;6.00;;;8.90;99.90;;;;;;5004346;28;20022;-80
2021/12/29 02:08:21;;;;;;;11.50;5.63;;;8.90;99.90;;;;;;5003926;28;20020;-81
2021/12/29 02:10:47;;;;;;;9.47;5.33;;;8.90;99.90;;;;;;5014129;28;20030;-80
2021/12/29 02:13:14;;;;;;;10.30;5.37;;;8.90;99.90;;;;;;4999515;28;20017;-80
2021/12/29 02:15:40;;;;;;;10.47;5.97;;;8.90;99.90;;;;;;5001217;28;20033;-80
2021/12/29 02:18:14;;;;;;;9.20;5.93;;;8.90;99.90;;;;;;4998342;28;20090;-80
2021/12/29 02:20:45;;;;;;;10.27;5.80;;;8.90;99.90;;;;;;5001397;28;20030;-80
2021/12/29 02:23:14;;;;;;;10.93;5.83;;;8.90;99.90;;;;;;4998281;28;20026;-80
2021/12/29 02:25:51;;;;;;;12.27;5.87;;;9.00;99.90;;;;;;4998992;28;20026;-80
2021/12/29 02:28:29;;;;;;;12.13;5.83;;;9.00;99.90;;;;;;4996167;28;20022;-80
2021/12/29 02:30:55;;;;;;;13.83;6.30;;;8.90;99.90;;;;;;5002413;28;20045;-80
2021/12/29 02:33:23;;;;;;;10.37;6.00;;;8.90;99.90;;;;;;5019906;28;20037;-80
2021/12/29 02:35:49;;;;;;;11.10;6.73;;;8.90;99.90;;;;;;5010251;28;20038;-80
2021/12/29 02:38:19;;;;;;;11.90;7.03;;;8.90;99.90;;;;;;5000819;28;20038;-80
2021/12/29 02:40:50;;;;;;;16.53;7.43;;;8.90;99.90;;;;;;5016644;28;20023;-80
2021/12/29 02:43:19;;;;;;;14.97;7.10;;;8.90;99.90;;;;;;4999340;28;20015;-80
2021/12/29 02:45:51;;;;;;;10.07;6.67;;;8.90;99.90;;;;;;4998343;28;20065;-80
2021/12/29 02:48:18;;;;;;;13.50;7.40;;;8.90;99.90;;;;;;5002831;28;20018;-79
2021/12/29 02:50:45;;;;;;;14.00;7.13;;;8.90;99.90;;;;;;4999086;28;20030;-80
2021/12/29 02:53:12;;;;;;;13.17;6.77;;;8.80;99.90;;;;;;5000037;28;20010;-79
2021/12/29 02:55:40;;;;;;;10.83;6.57;;;8.90;99.90;;;;;;5002156;28;20053;-80
2021/12/29 02:58:06;;;;;;;13.93;7.43;;;8.90;99.90;;;;;;5005271;28;20038;-80
2021/12/29 03:00:32;;;;;;;15.23;6.93;;;8.80;99.90;;;;;;4999646;28;20037;-80
2021/12/29 03:02:58;;;;;;;12.73;7.00;;;8.90;99.90;;;;;;4998999;28;20014;-80
2021/12/29 03:05:26;;;;;;;17.40;7.27;;;8.90;99.90;;;;;;4999058;28;20034;-79
2021/12/29 03:07:56;;;;;;;11.27;7.20;;;8.80;99.90;;;;;;5013671;28;20029;-79
2021/12/29 03:10:21;;;;;;;10.60;6.30;;;8.80;99.90;;;;;;5013814;28;20086;-80
2021/12/29 03:12:57;;;;;;;;;;;;;;;;;;;;;
2021/12/29 03:15:23;;;;;;;14.23;6.70;;;8.90;99.90;;;;;;5019429;28;20054;-79
2021/12/29 03:17:49;;;;;;;14.13;7.20;;;8.80;99.90;;;;;;5004513;28;20022;-80
2021/12/29 03:20:14;;;;;;;12.37;6.97;;;8.80;99.90;;;;;;5000763;28;20030;-80
2021/12/29 03:22:40;;;;;;;11.07;6.43;;;8.80;99.90;;;;;;5012979;28;20090;-80
2021/12/29 03:25:06;;;;;;;11.57;6.33;;;8.80;99.90;;;;;;5000312;28;20035;-80
2021/12/29 03:27:32;;;;;;;12.87;6.77;;;8.80;99.90;;;;;;5007625;28;20038;-80
2021/12/29 03:29:58;;;;;;;13.67;6.13;;;8.80;99.90;;;;;;5001688;28;20051;-80
2021/12/29 03:32:37;;;;;;;16.00;7.00;;;8.80;99.90;;;;;;5004574;28;20022;-81
2021/12/29 03:35:04;;;;;;;12.83;7.30;;;8.80;99.90;;;;;;5011412;28;20017;-80
2021/12/29 03:37:30;;;;;;;16.63;7.47;;;8.80;99.90;;;;;;5019948;28;20018;-80
2021/12/29 03:39:56;;;;;;;15.67;7.43;;;8.80;99.90;;;;;;5000066;28;20042;-80
2021/12/29 03:42:21;;;;;;;13.40;7.20;;;8.80;99.90;;;;;;5004816;28;20021;-81
2021/12/29 03:44:47;;;;;;;12.17;5.93;;;8.80;99.90;;;;;;4997753;28;20025;-80
2021/12/29 03:47:13;;;;;;;11.83;6.10;;;8.80;99.90;;;;;;5003733;28;20015;-80
2021/12/29 03:49:39;;;;;;;12.37;7.00;;;8.70;99.90;;;;;;5007564;28;20046;-80
2021/12/29 03:52:05;;;;;;;12.40;7.07;;;8.80;99.90;;;;;;5006867;28;20082;-80
2021/12/29 03:54:32;;;;;;;14.10;6.70;;;8.80;99.90;;;;;;4999639;28;20026;-80
2021/12/29 03:57:01;;;;;;;11.90;6.47;;;8.70;99.90;;;;;;5004656;28;20015;-81
2021/12/29 03:59:27;;;;;;;12.67;6.47;;;8.70;99.90;;;;;;5002624;28;20018;-80
2021/12/29 04:01:56;;;;;;;15.83;7.37;;;8.70;99.90;;;;;;5007075;28;20081;-80
2021/12/29 04:04:22;;;;;;;14.60;6.57;;;8.70;99.90;;;;;;5003312;28;20019;-80
2021/12/29 04:06:51;;;;;;;11.17;5.77;;;8.70;99.90;;;;;;5002096;28;20062;-80
2021/12/29 04:09:18;;;;;;;13.63;7.77;;;8.70;99.90;;;;;;5004158;28;20045;-81
2021/12/29 04:11:50;;;;;;;14.27;6.27;;;8.70;99.90;;;;;;5004460;28;20074;-80
2021/12/29 04:14:21;;;;;;;13.77;6.87;;;8.70;99.90;;;;;;4997820;28;20089;-80
2021/12/29 04:16:47;;;;;;;11.63;6.13;;;8.60;99.90;;;;;;5006972;28;20113;-80
2021/12/29 04:19:15;;;;;;;12.07;6.07;;;8.70;99.90;;;;;;5005519;28;20022;-80
2021/12/29 04:21:43;;;;;;;13.83;6.47;;;8.60;99.90;;;;;;5005193;28;20029;-80
2021/12/29 04:24:09;;;;;;;12.30;6.63;;;8.70;99.90;;;;;;5006896;28;20053;-79
2021/12/29 04:26:39;;;;;;;15.37;7.10;;;8.70;99.90;;;;;;5003709;28;20028;-80
2021/12/29 04:29:06;;;;;;;16.83;7.83;;;8.70;99.90;;;;;;5004859;28;20095;-80
2021/12/29 04:31:33;;;;;;;13.83;7.20;;;8.60;99.90;;;;;;5003879;28;20018;-80
2021/12/29 04:33:58;;;;;;;13.33;6.80;;;8.60;99.90;;;;;;5012823;28;20027;-81
2021/12/29 04:36:24;;;;;;;17.10;7.77;;;8.60;99.90;;;;;;5016526;28;20153;-80
2021/12/29 04:38:51;;;;;;;14.43;7.30;;;8.60;99.90;;;;;;4999007;28;20052;-81
2021/12/29 04:41:17;;;;;;;16.27;7.93;;;8.50;99.90;;;;;;5017079;28;20014;-81
2021/12/29 04:43:43;;;;;;;16.07;8.17;;;8.60;99.90;;;;;;5000560;28;20229;-81
2021/12/29 04:46:14;;;;;;;19.17;7.90;;;8.60;99.90;;;;;;5003225;28;20100;-80
2021/12/29 04:48:46;;;;;;;15.67;7.20;;;8.60;99.90;;;;;;5000855;28;20034;-81
2021/12/29 04:51:15;;;;;;;;;;;8.60;99.90;;;;;;5007342;28;20048;-81
2021/12/29 04:53:41;;;;;;;16.80;7.60;;;8.50;99.90;;;;;;5005257;28;19913;-80
2021/12/29 04:56:07;;;;;;;19.50;7.70;;;8.60;99.90;;;;;;4999625;28;20010;-81
2021/12/29 04:58:33;;;;;;;17.07;6.97;;;8.60;99.90;;;;;;5002414;28;20085;-81
2021/12/29 05:00:59;;;;;;;24.27;7.60;;;8.50;99.90;;;;;;5003972;28;20038;-80
2021/12/29 05:03:25;;;;;;;19.93;8.03;;;8.50;99.90;;;;;;5000044;28;20014;-80
2021/12/29 05:08:42;;;;;;;19.43;8.83;;;8.50;99.90;;;;;;4980302;28;20273;-81
2021/12/29 05:11:13;;;;;;;14.43;8.13;;;8.50;99.90;;;;;;5009625;28;20045;-80
2021/12/29 05:13:41;;;;;;;14.57;7.77;;;8.60;99.90;;;;;;5011189;28;20030;-80
2021/12/29 05:16:09;;;;;;;15.43;7.20;;;8.60;99.90;;;;;;5004793;28;20025;-80
2021/12/29 05:18:40;;;;;;;13.77;7.10;;;8.60;99.90;;;;;;5004551;28;20010;-82
2021/12/29 05:21:07;;;;;;;17.57;6.80;;;8.60;99.90;;;;;;5016903;28;20028;-79
2021/12/29 05:23:33;;;;;;;16.67;7.83;;;8.60;99.90;;;;;;5009192;28;20078;-82
2021/12/29 05:25:59;;;;;;;20.43;8.10;;;8.60;99.90;;;;;;5002955;28;20014;-79
2021/12/29 05:28:25;;;;;;;16.80;8.20;;;8.50;99.90;;;;;;5005391;28;20093;-80
2021/12/29 05:30:53;;;;;;;19.80;9.03;;;8.50;99.90;;;;;;5019236;28;20022;-81
2021/12/29 05:33:19;;;;;;;17.70;8.20;;;8.50;99.90;;;;;;5000645;28;20069;-82
2021/12/29 05:35:45;;;;;;;16.30;8.17;;;8.50;99.90;;;;;;5000498;28;20050;-82
2021/12/29 05:38:11;;;;;;;20.37;8.73;;;8.50;99.90;;;;;;4999560;28;20006;-80
2021/12/29 05:40:37;;;;;;;18.87;8.37;;;8.50;99.90;;;;;;4997596;28;20014;-82
2021/12/29 05:43:05;;;;;;;20.63;9.53;;;8.50;99.90;;;;;;5002536;28;20061;-80
2021/12/29 05:45:34;;;;;;;22.07;10.27;;;8.50;99.90;;;;;;5003070;28;20082;-80
2021/12/29 05:48:01;;;;;;;20.40;10.27;;;8.50;99.90;;;;;;5000551;28;20054;-81
2021/12/29 05:50:30;;;;;;;19.17;10.77;;;8.50;99.90;;;;;;5006315;28;20029;-80
2021/12/29 05:53:00;;;;;;;15.23;8.53;;;8.50;99.90;;;;;;4996501;28;20010;-79
2021/12/29 05:55:26;;;;;;;22.70;9.97;;;8.50;99.90;;;;;;5007829;28;20045;-80
2021/12/29 05:57:52;;;;;;;15.53;8.13;;;8.50;99.90;;;;;;5005182;28;20014;-81
2021/12/29 06:00:19;;;;;;;20.70;9.80;;;8.50;99.90;;;;;;5026717;28;20033;-81
2021/12/29 06:02:46;;;;;;;25.50;10.07;;;8.40;99.90;;;;;;5007584;28;20041;-81
2021/12/29 06:05:12;;;;;;;22.73;10.30;;;8.40;99.90;;;;;;4998617;28;20031;-81
2021/12/29 06:07:38;;;;;;;22.13;10.63;;;8.40;99.90;;;;;;4999429;28;20027;-80
2021/12/29 06:10:06;;;;;;;19.23;8.80;;;8.40;99.90;;;;;;5002777;28;20034;-80
2021/12/29 06:12:32;;;;;;;22.83;9.87;;;8.40;99.90;;;;;;4996020;28;20182;-80
2021/12/29 06:14:57;;;;;;;21.37;10.40;;;8.40;99.90;;;;;;5004196;28;20061;-81
2021/12/29 06:17:23;;;;;;;26.90;9.97;;;8.40;99.90;;;;;;4996080;28;20014;-80
2021/12/29 06:19:49;;;;;;;22.93;10.63;;;8.40;99.90;;;;;;4999623;28;20037;-80
2021/12/29 06:22:15;;;;;;;26.30;11.10;;;8.40;99.90;;;;;;5003105;28;20010;-81
2021/12/29 06:24:42;;;;;;;25.37;12.17;;;8.40;99.90;;;;;;5004704;28;20023;-81
2021/12/29 06:27:08;;;;;;;22.30;10.40;;;8.40;99.90;;;;;;4998505;28;20010;-81
2021/12/29 06:29:34;;;;;;;25.13;11.03;;;8.40;99.90;;;;;;5001621;28;20034;-81
2021/12/29 06:32:03;;;;;;;25.27;11.57;;;8.40;99.90;;;;;;4999991;28;20033;-80
2021/12/29 06:34:34;;;;;;;25.50;12.13;;;8.30;99.90;;;;;;5002529;28;20090;-81
2021/12/29 06:37:03;;;;;;;23.13;10.57;;;8.40;99.90;;;;;;5002879;28;20038;-79
2021/12/29 06:39:29;;;;;;;26.63;10.87;;;8.40;99.90;;;;;;5001035;28;20025;-80
2021/12/29 06:41:55;;;;;;;28.30;12.17;;;8.40;99.90;;;;;;4999787;28;20018;-80
2021/12/29 06:44:23;;;;;;;31.83;11.03;;;8.40;99.90;;;;;;4999755;28;20014;-80
2021/12/29 06:46:49;;;;;;;26.50;12.13;;;8.40;99.90;;;;;;5003469;28;20030;-80
2021/12/29 06:49:15;;;;;;;29.67;11.17;;;8.30;99.90;;;;;;4998432;28;20046;-80
2021/12/29 06:51:41;;;;;;;24.60;11.27;;;8.40;99.90;;;;;;5002226;28;20090;-80
2021/12/29 06:54:06;;;;;;;28.40;10.63;;;8.30;99.90;;;;;;5001055;28;20336;-80
2021/12/29 06:56:35;;;;;;;25.57;12.03;;;8.40;99.90;;;;;;5002660;28;20025;-80
2021/12/29 06:59:02;;;;;;;27.57;12.90;;;8.40;99.90;;;;;;5004132;28;20038;-80
2021/12/29 07:01:28;;;;;;;32.13;12.40;;;8.40;99.90;;;;;;5000722;28;20033;-81
2021/12/29 07:03:54;;;;;;;24.10;10.20;;;8.40;99.90;;;;;;4999763;28;20034;-81
2021/12/29 07:06:20;;;;;;;31.00;10.97;;;8.40;99.90;;;;;;5001244;28;20041;-81
2021/12/29 07:08:50;;;;;;;25.93;11.13;;;8.30;99.90;;;;;;4997417;28;20014;-82
2021/12/29 07:11:16;;;;;;;26.70;10.97;;;8.30;99.90;;;;;;5001226;28;20057;-80
2021/12/29 07:13:45;;;;;;;21.37;10.20;;;8.30;99.90;;;;;;4994666;28;20015;-81
2021/12/29 07:16:12;;;;;;;24.53;10.03;;;8.30;99.90;;;;;;5001254;28;20145;-81
2021/12/29 07:18:48;;;;;;;24.30;10.90;;;8.30;99.90;;;;;;5002861;28;20030;-80
2021/12/29 07:21:14;;;;;;;24.60;10.40;;;8.30;99.90;;;;;;4998786;28;20018;-80
2021/12/29 07:23:40;;;;;;;20.23;9.10;;;8.30;99.90;;;;;;4998921;28;20022;-80
2021/12/29 07:26:18;;;;;;;19.30;8.83;;;8.30;99.90;;;;;;5008117;28;20093;-81
2021/12/29 07:28:44;;;;;;;16.23;8.00;;;8.30;99.90;;;;;;4999602;28;20022;-80
2021/12/29 07:31:15;;;;;;;15.90;7.73;;;8.30;99.90;;;;;;4998043;28;20038;-81
2021/12/29 07:33:41;;;;;;;18.83;7.57;;;8.30;99.90;;;;;;5005038;28;20022;-81
2021/12/29 07:36:07;;;;;;;13.83;7.10;;;8.30;99.90;;;;;;4999249;28;20017;-80
2021/12/29 07:38:35;;;;;;;16.37;6.70;;;8.30;99.90;;;;;;4997023;28;20030;-81
2021/12/29 07:41:13;;;;;;;15.43;7.53;;;8.30;99.90;;;;;;5000472;28;20209;-80
2021/12/29 07:43:42;;;;;;;13.13;6.47;;;8.30;99.90;;;;;;4998404;28;20038;-80
2021/12/29 07:46:09;;;;;;;17.10;6.37;;;8.30;99.90;;;;;;5000954;28;20053;-80
2021/12/29 07:48:35;;;;;;;14.33;6.73;;;8.30;99.90;;;;;;5000579;28;20092;-80
2021/12/29 07:51:05;;;;;;;14.47;7.13;;;8.30;99.90;;;;;;4999070;28;20034;-80
2021/12/29 07:53:34;;;;;;;15.80;8.13;;;8.30;99.90;;;;;;4996647;28;20021;-80
2021/12/29 07:56:00;;;;;;;12.33;6.03;;;8.30;99.90;;;;;;4996076;28;20031;-80
2021/12/29 07:58:26;;;;;;;12.60;6.50;;;8.30;99.90;;;;;;5005511;28;20040;-80
2021/12/29 08:00:54;;;;;;;19.73;6.73;;;8.30;99.90;;;;;;5016329;28;20006;-80
2021/12/29 08:03:20;;;;;;;12.80;6.93;;;8.30;99.90;;;;;;5002014;28;20030;-81
2021/12/29 08:05:48;;;;;;;14.53;7.10;;;8.30;99.90;;;;;;5006367;28;20022;-80
2021/12/29 08:08:14;;;;;;;11.30;6.13;;;8.30;99.90;;;;;;5013496;28;20012;-80
2021/12/29 08:10:45;;;;;;;12.87;6.17;;;8.30;99.90;;;;;;5006433;28;20038;-80
2021/12/29 08:13:10;;;;;;;14.60;5.33;;;8.40;99.90;;;;;;5003717;28;20022;-80
2021/12/29 08:15:36;;;;;;;11.97;6.37;;;8.40;99.90;;;;;;5003510;28;20026;-80
2021/12/29 08:18:04;;;;;;;13.57;6.60;;;8.30;99.90;;;;;;5001820;28;20018;-80
2021/12/29 08:20:35;;;;;;;13.63;6.50;;;8.30;99.90;;;;;;5003167;28;20042;-80
2021/12/29 08:23:03;;;;;;;12.70;6.03;;;8.30;99.90;;;;;;5004039;28;20098;-80
2021/12/29 08:25:29;;;;;;;11.00;5.83;;;8.40;99.90;;;;;;4999983;28;20093;-80
2021/12/29 08:27:57;;;;;;;11.03;5.00;;;8.40;99.90;;;;;;5002252;28;20015;-80
2021/12/29 08:30:23;;;;;;;10.87;4.70;;;8.40;99.90;;;;;;5016606;28;20045;-80
2021/12/29 08:32:49;;;;;;;15.43;5.27;;;8.40;99.90;;;;;;5006175;28;20030;-80
2021/12/29 08:35:15;;;;;;;14.43;5.90;;;8.40;99.90;;;;;;5003698;28;20086;-80
2021/12/29 08:37:42;;;;;;;9.07;5.10;;;8.50;99.90;;;;;;5002626;28;20019;-80
2021/12/29 08:40:11;;;;;;;14.17;5.57;;;8.50;99.90;;;;;;5001035;28;20038;-80
2021/12/29 08:42:38;;;;;;;13.77;4.77;;;8.40;99.90;;;;;;5000764;28;20063;-80
2021/12/29 08:45:10;;;;;;;15.17;5.13;;;8.40;99.90;;;;;;5002040;28;20083;-80
2021/12/29 08:47:39;;;;;;;11.73;5.60;;;8.40;99.90;;;;;;5000789;28;20031;-80
2021/12/29 08:50:07;;;;;;;13.13;5.77;;;8.40;99.90;;;;;;5000656;28;20049;-79
2021/12/29 08:52:34;;;;;;;7.70;5.17;;;8.40;99.90;;;;;;4998331;28;20088;-80
2021/12/29 08:55:03;;;;;;;11.17;4.93;;;8.40;99.90;;;;;;4999879;28;20038;-80
2021/12/29 08:57:29;;;;;;;10.87;4.87;;;8.50;99.90;;;;;;5002559;28;20263;-80
2021/12/29 08:59:55;;;;;;;12.60;4.27;;;8.50;99.90;;;;;;5015627;28;20102;-80
2021/12/29 09:02:21;;;;;;;10.43;4.17;;;8.50;99.90;;;;;;4999057;28;20033;-80
2021/12/29 09:04:53;;;;;;;7.73;4.60;;;8.50;99.90;;;;;;5005690;28;20025;-80
2021/12/29 09:07:22;;;;;;;11.38;5.20;;;8.50;99.90;;;;;;5016808;28;20022;-80
2021/12/29 09:09:47;;;;;;;7.07;4.20;;;8.50;99.90;;;;;;5000019;28;20273;-80
2021/12/29 09:12:15;;;;;;;13.23;4.97;;;8.50;99.90;;;;;;4997976;28;20022;-80
2021/12/29 09:14:44;;;;;;;8.10;4.33;;;8.50;99.90;;;;;;5002274;28;20125;-80
2021/12/29 09:17:12;;;;;;;7.77;4.33;;;8.50;99.90;;;;;;5001629;28;20049;-80
2021/12/29 09:19:41;;;;;;;12.07;3.77;;;8.50;99.90;;;;;;5000384;28;20026;-80
2021/12/29 09:22:07;;;;;;;9.17;3.77;;;8.50;99.90;;;;;;5001531;28;20026;-80
2021/12/29 09:24:33;;;;;;;8.80;4.00;;;8.60;99.90;;;;;;5014227;28;20018;-80
2021/12/29 09:27:01;;;;;;;9.20;3.63;;;8.60;99.90;;;;;;5003833;28;20230;-80
2021/12/29 09:29:27;;;;;;;9.00;3.00;;;8.60;99.90;;;;;;5016026;28;20033;-80
2021/12/29 09:31:53;;;;;;;9.97;2.87;;;8.60;99.90;;;;;;5000508;28;20026;-80
2021/12/29 09:34:19;;;;;;;5.47;3.30;;;8.70;99.90;;;;;;5017115;28;20033;-80
2021/12/29 09:36:44;;;;;;;9.17;3.43;;;8.70;99.90;;;;;;5005572;28;20018;-80
2021/12/29 09:39:13;;;;;;;6.60;4.17;;;8.70;99.90;;;;;;4996852;28;20073;-80
2021/12/29 09:41:39;;;;;;;6.13;4.10;;;8.70;99.90;;;;;;5007362;28;20082;-80
2021/12/29 09:44:09;;;;;;;6.80;3.90;;;8.80;99.90;;;;;;4998747;28;20037;-79
2021/12/29 09:46:35;;;;;;;6.43;3.93;;;8.80;99.90;;;;;;4999811;28;20094;-80
2021/12/29 09:49:02;;;;;;;9.47;3.67;;;8.90;99.90;;;;;;5014073;28;20049;-80
2021/12/29 09:51:37;;;;;;;5.63;3.00;;;8.90;99.90;;;;;;5007200;28;20033;-81
2021/12/29 09:54:09;;;;;;;15.00;4.27;;;8.90;99.90;;;;;;5000628;28;20041;-81
2021/12/29 09:56:37;;;;;;;7.45;3.60;;;8.80;99.90;;;;;;5014737;28;20014;-80
2021/12/29 09:59:05;;;;;;;6.07;3.47;;;8.90;99.90;;;;;;5002592;28;20030;-79
2021/12/29 10:01:34;;;;;;;10.63;3.53;;;8.90;99.90;;;;;;5002616;28;20025;-80
2021/12/29 10:04:05;;;;;;;7.80;3.43;;;8.90;99.90;;;;;;5001210;28;20030;-80
2021/12/29 10:06:33;;;;;;;5.97;3.70;;;9.00;99.90;;;;;;5000712;28;20050;-79
2021/12/29 10:09:31;;;;;;;9.20;4.10;;;8.90;99.90;;;;;;5003234;28;20030;-80
2021/12/29 10:12:27;;;;;;;8.43;3.33;;;9.00;99.90;;;;;;5001196;28;20597;-81
2021/12/29 10:15:05;;;;;;;8.57;4.13;;;9.00;99.90;;;;;;5000121;28;20018;-80
2021/12/29 10:17:39;;;;;;;12.47;5.50;;;9.00;99.90;;;;;;4999627;28;20034;-80
2021/12/29 10:20:12;;;;;;;10.40;4.27;;;9.00;99.90;;;;;;5008821;28;20030;-80
2021/12/29 10:22:56;;;;;;;10.13;4.30;;;9.10;99.90;;;;;;4998655;28;20110;-80
2021/12/29 10:25:25;;;;;;;10.77;4.97;;;9.20;99.90;;;;;;5010590;28;20025;-80
2021/12/29 10:27:54;;;;;;;10.97;4.43;;;9.20;99.90;;;;;;5001836;28;20013;-80
2021/12/29 10:30:37;;;;;;;12.40;4.60;;;9.30;99.90;;;;;;4997455;28;20054;-80
2021/12/29 10:41:17;;;;;;;16.43;6.13;;;9.40;99.90;;;;;;4999445;28;20046;-80
2021/12/29 10:43:57;;;;;;;8.80;4.57;;;9.40;99.90;;;;;;4984498;28;20035;-81
2021/12/29 10:46:33;;;;;;;8.63;4.27;;;9.40;99.90;;;;;;4998853;28;20018;-80
2021/12/29 10:49:30;;;;;;;;;;;;;;;;;;;;;
2021/12/29 10:51:57;;;;;;;6.40;3.77;;;9.40;99.90;;;;;;4999853;28;20046;-80
2021/12/29 10:54:36;;;;;;;10.33;4.30;;;9.40;99.90;;;;;;5431156;23;20038;-80
2021/12/29 10:57:15;;;;;;;10.43;4.20;;;9.40;99.90;;;;;;4998998;28;20014;-80
2021/12/29 10:59:47;;;;;;;9.40;4.30;;;9.30;99.90;;;;;;5169584;23;20406;-80
2021/12/29 11:02:39;;;;;;;10.57;4.10;;;9.30;99.90;;;;;;4993420;28;20016;-80
2021/12/29 11:05:12;;;;;;;10.23;3.93;;;9.30;99.90;;;;;;4976923;28;20047;-80
2021/12/29 11:07:40;;;;;;;8.17;3.77;;;9.30;99.90;;;;;;4994408;28;20096;-82
2021/12/29 11:10:38;;;;;;;7.20;3.10;;;9.30;99.90;;;;;;4982632;28;20108;-81
2021/12/29 11:13:12;;;;;;;8.40;3.57;;;9.30;99.90;;;;;;4978419;28;20043;-80
2021/12/29 11:15:50;;;;;;;6.60;3.10;;;9.40;99.90;;;;;;4980059;28;20047;-80
2021/12/29 11:18:16;;;;;;;8.43;3.80;;;9.40;99.90;;;;;;4989378;28;20030;-80
2021/12/29 11:20:41;;;;;;;5.50;2.77;;;9.40;99.90;;;;;;4981786;28;20019;-80
2021/12/29 11:23:12;;;;;;;8.67;3.10;;;9.50;99.90;;;;;;4979043;28;20015;-80
2021/12/29 11:25:42;;;;;;;9.60;3.27;;;9.50;99.90;;;;;;4984650;28;20111;-80
2021/12/29 11:28:39;;;;;;;8.57;3.20;;;9.60;99.90;;;;;;4965095;28;20051;-80
2021/12/29 11:31:08;;;;;;;5.73;3.43;;;9.60;99.90;;;;;;4993707;28;20029;-80
2021/12/29 11:33:34;;;;;;;10.83;3.83;;;9.70;99.90;;;;;;4990805;28;20015;-80
2021/12/29 11:36:02;;;;;;;8.47;3.03;;;9.70;99.90;;;;;;4983419;28;20062;-80
2021/12/29 11:38:28;;;;;;;9.00;3.33;;;9.70;99.90;;;;;;4986619;28;20024;-80
2021/12/29 11:40:57;;;;;;;7.13;2.93;;;9.70;99.90;;;;;;4987143;28;20037;-80
2021/12/29 11:43:23;;;;;;;6.77;3.77;;;9.80;99.90;;;;;;4983916;28;20051;-80
2021/12/29 11:45:51;;;;;;;9.63;3.00;;;9.90;99.90;;;;;;4985527;28;20047;-81
2021/12/29 11:48:23;;;;;;;6.27;2.67;;;9.90;99.90;;;;;;4997528;28;20027;-80
2021/12/29 11:50:53;;;;;;;4.97;2.60;;;9.90;99.90;;;;;;5001276;28;20047;-80
2021/12/29 11:53:31;;;;;;;4.63;2.87;;;10.00;99.90;;;;;;4982648;28;20027;-80
2021/12/29 11:56:08;;;;;;;6.97;3.10;;;10.00;99.90;;;;;;4982157;28;20037;-80
2021/12/29 11:58:41;;;;;;;4.10;2.10;;;10.00;99.90;;;;;;4983264;28;20094;-80
2021/12/29 12:01:23;;;;;;;7.37;1.60;;;10.00;99.90;;;;;;4968147;28;20082;-80
2021/12/29 12:03:59;;;;;;;3.90;1.77;;;10.00;99.90;;;;;;4969540;28;20015;-80
2021/12/29 12:06:30;;;;;;;1.87;1.60;;;10.00;99.90;;;;;;5118934;23;20030;-80
2021/12/29 12:09:13;;;;;;;3.03;1.50;;;10.00;99.90;;;;;;4982784;28;20027;-80
2021/12/29 12:11:42;;;;;;;;;;;10.00;99.90;;;;;;4983859;28;20054;-80
2021/12/29 12:14:22;;;;;;;2.43;1.30;;;10.00;99.90;;;;;;4998988;28;19914;-80
2021/12/29 12:17:04;;;;;;;6.00;1.20;;;10.00;99.90;;;;;;5000074;28;20011;-80
2021/12/29 12:19:34;;;;;;;1.58;1.38;;;9.90;99.90;;;;;;4997727;28;20083;-80
2021/12/29 12:22:14;;;;;;;4.93;1.20;;;9.90;99.90;;;;;;4981233;28;20050;-80
2021/12/29 12:24:55;;;;;;;3.47;1.60;;;9.90;99.90;;;;;;4992666;28;20027;-80
2021/12/29 12:28:03;;;;;;;1.77;1.27;;;9.90;99.90;;;;;;4979344;28;20046;-79
2021/12/29 12:30:51;;;;;;;3.13;1.33;;;9.90;99.90;;;;;;4998063;28;20030;-80
2021/12/29 12:33:28;;;;;;;4.07;1.20;;;9.90;99.90;;;;;;4980540;28;20020;-81
2021/12/29 12:35:58;;;;;;;3.00;1.30;;;9.80;99.90;;;;;;4978845;28;20022;-80
2021/12/29 12:38:39;;;;;;;3.70;1.13;;;9.80;99.90;;;;;;4995800;28;20094;-81
2021/12/29 12:41:20;;;;;;;3.97;2.20;;;9.80;99.90;;;;;;4983174;28;20019;-80
2021/12/29 12:44:04;;;;;;;4.23;1.73;;;9.80;99.90;;;;;;4977748;28;20034;-80
2021/12/29 12:46:41;;;;;;;2.47;0.90;;;9.90;99.90;;;;;;4980250;28;20023;-80
2021/12/29 12:49:26;;;;;;;10.47;2.10;;;9.80;99.90;;;;;;4980705;28;20014;-78
2021/12/29 12:52:01;;;;;;;4.17;1.17;;;9.80;99.90;;;;;;4979187;28;20019;-80
2021/12/29 12:54:36;;;;;;;5.63;1.10;;;9.90;99.90;;;;;;4978846;28;20019;-80
2021/12/29 12:57:03;;;;;;;3.83;1.30;;;9.80;99.90;;;;;;4975739;28;20090;-80
2021/12/29 12:59:42;;;;;;;2.10;0.83;;;9.80;99.90;;;;;;4981875;28;20035;-81
2021/12/29 13:02:16;;;;;;;3.67;1.50;;;9.80;99.90;;;;;;4981699;28;20181;-80
2021/12/29 13:05:07;;;;;;;1.37;1.03;;;9.80;99.90;;;;;;4981504;28;20034;-80
2021/12/29 13:07:33;;;;;;;3.00;1.40;;;9.90;99.90;;;;;;4977267;28;20018;-80
2021/12/29 13:10:00;;;;;;;2.00;1.30;;;9.90;99.90;;;;;;4982046;28;20057;-80
2021/12/29 13:12:31;;;;;;;2.60;1.20;;;9.90;99.90;;;;;;4978403;28;20019;-80